Time;durP1;ratioP1;P1;durP2;ratioP2;P2;SDS_P1;SDS_P2;PMS_P1;PMS_P2;Temp;Humidity;BMP_temperature;BMP_pressure;BME280_temperature;BME280_humidity;BME280_pressure;Samples;Min_cycle;Max_cycle;Signal;HPM_P1;HPM_P2
2022/07/13 00:01:31;;;;;;;3.70;2.58;;;19.70;99.90;;;;;;5048187;28;20413;-69
2022/07/13 00:03:57;;;;;;;3.20;2.70;;;19.70;99.90;;;;;;5067103;28;20033;-69
2022/07/13 00:06:23;;;;;;;3.90;2.40;;;19.70;99.90;;;;;;5069911;28;20055;-69
2022/07/13 00:08:48;;;;;;;2.90;2.65;;;19.70;99.90;;;;;;5052146;28;20068;-69
2022/07/13 00:11:14;;;;;;;3.17;2.35;;;19.70;99.90;;;;;;5068959;28;20097;-69
2022/07/13 00:13:40;;;;;;;3.33;2.60;;;19.70;99.90;;;;;;5069013;28;20466;-69
2022/07/13 00:16:06;;;;;;;2.72;2.50;;;19.60;99.90;;;;;;5050839;28;20090;-69
2022/07/13 00:18:31;;;;;;;3.90;2.38;;;19.60;99.90;;;;;;5068718;28;20035;-69
2022/07/13 00:20:57;;;;;;;2.60;2.40;;;19.60;99.90;;;;;;5047288;28;20540;-69
2022/07/13 00:23:23;;;;;;;2.45;2.22;;;19.60;99.90;;;;;;5068509;28;20040;-69
2022/07/13 00:25:49;;;;;;;3.00;2.30;;;19.60;99.90;;;;;;5068615;28;20047;-69
2022/07/13 00:28:15;;;;;;;2.85;2.50;;;19.60;99.90;;;;;;5050958;28;20067;-69
2022/07/13 00:30:41;;;;;;;3.33;3.10;;;19.60;99.90;;;;;;5052209;28;20076;-69
2022/07/13 00:33:07;;;;;;;4.10;3.67;;;19.50;99.90;;;;;;5051339;28;20070;-69
2022/07/13 00:35:33;;;;;;;3.90;3.60;;;19.50;99.90;;;;;;5071125;28;20048;-69
2022/07/13 00:37:59;;;;;;;3.50;3.08;;;19.50;99.90;;;;;;5073079;28;20041;-70
2022/07/13 00:40:25;;;;;;;2.92;2.72;;;19.50;99.90;;;;;;5056036;28;20106;-69
2022/07/13 00:42:51;;;;;;;2.85;2.65;;;19.50;99.90;;;;;;5070356;28;20079;-69
2022/07/13 00:45:16;;;;;;;3.17;2.75;;;19.50;99.90;;;;;;5067688;28;20523;-69
2022/07/13 00:47:44;;;;;;;3.00;2.80;;;19.50;99.90;;;;;;5054786;28;20082;-69
2022/07/13 00:50:10;;;;;;;6.28;3.10;;;19.50;99.90;;;;;;5056947;28;20382;-69
2022/07/13 00:52:36;;;;;;;4.90;3.55;;;19.60;99.90;;;;;;5050968;28;20037;-69
2022/07/13 00:55:05;;;;;;;4.57;4.22;;;19.50;99.90;;;;;;5068386;28;20036;-69
2022/07/13 00:57:34;;;;;;;4.68;3.35;;;19.50;99.90;;;;;;5073673;28;20094;-69
2022/07/13 01:00:00;;;;;;;3.53;3.22;;;19.50;99.90;;;;;;5072886;28;20072;-70
2022/07/13 01:02:26;;;;;;;4.13;3.83;;;19.50;99.90;;;;;;5052859;28;20474;-69
2022/07/13 01:04:52;;;;;;;3.78;3.47;;;19.50;99.90;;;;;;5074394;28;20051;-69
2022/07/13 01:07:18;;;;;;;3.50;3.20;;;19.50;99.90;;;;;;5055428;28;20178;-69
2022/07/13 01:09:43;;;;;;;5.53;3.35;;;19.50;99.90;;;;;;5035391;28;20057;-69
2022/07/13 01:12:09;;;;;;;3.88;3.50;;;19.50;99.90;;;;;;5043172;28;20573;-69
2022/07/13 01:14:36;;;;;;;4.35;4.05;;;19.50;99.90;;;;;;5072129;28;20036;-69
2022/07/13 01:17:02;;;;;;;3.88;3.53;;;19.50;99.90;;;;;;5054480;28;20074;-69
2022/07/13 01:19:28;;;;;;;5.30;4.80;;;19.50;99.90;;;;;;5073313;28;20504;-70
2022/07/13 01:22:00;;;;;;;5.30;4.90;;;19.50;99.90;;;;;;5053776;28;20040;-69
2022/07/13 01:24:29;;;;;;;4.75;4.28;;;19.50;99.90;;;;;;5068383;28;20044;-69
2022/07/13 01:26:54;;;;;;;4.80;3.88;;;19.50;99.90;;;;;;5054562;28;20052;-70
2022/07/13 01:29:20;;;;;;;4.78;4.43;;;19.50;99.90;;;;;;5052982;28;20032;-70
2022/07/13 01:31:46;;;;;;;5.15;4.75;;;19.50;99.90;;;;;;5054673;28;20040;-69
2022/07/13 01:34:11;;;;;;;5.40;4.90;;;19.50;99.90;;;;;;5070957;28;20070;-69
2022/07/13 01:36:38;;;;;;;5.57;5.07;;;19.50;99.90;;;;;;5053819;28;20037;-69
2022/07/13 01:39:05;;;;;;;5.13;4.63;;;19.50;99.90;;;;;;5048469;28;20041;-69
2022/07/13 01:41:30;;;;;;;5.18;4.78;;;19.50;99.90;;;;;;5062681;28;20056;-69
2022/07/13 01:43:57;;;;;;;4.80;4.40;;;19.50;99.90;;;;;;5054773;28;20028;-69
2022/07/13 01:46:24;;;;;;;4.88;4.47;;;19.50;99.90;;;;;;5069318;28;20098;-70
2022/07/13 01:48:51;;;;;;;5.05;4.60;;;19.50;99.90;;;;;;5054643;28;20041;-70
2022/07/13 01:51:16;;;;;;;6.20;5.57;;;19.50;99.90;;;;;;5055060;28;20666;-70
2022/07/13 01:53:42;;;;;;;5.93;4.78;;;19.50;99.90;;;;;;5054882;28;20047;-69
2022/07/13 01:56:07;;;;;;;7.85;7.10;;;19.50;99.90;;;;;;5055544;28;20127;-69
2022/07/13 01:58:33;;;;;;;7.43;6.72;;;19.40;99.90;;;;;;5055423;28;20033;-69
2022/07/13 02:00:59;;;;;;;9.30;8.40;;;19.40;99.90;;;;;;5073461;28;20079;-70
2022/07/13 02:03:25;;;;;;;7.50;6.78;;;19.40;99.90;;;;;;5050402;28;20084;-69
2022/07/13 02:05:51;;;;;;;7.10;6.50;;;19.40;99.90;;;;;;5066082;28;20040;-69
2022/07/13 02:08:17;;;;;;;8.07;7.38;;;19.40;99.90;;;;;;5049236;28;20102;-69
2022/07/13 02:10:43;;;;;;;9.15;8.45;;;19.40;99.90;;;;;;5051010;28;20073;-69
2022/07/13 02:13:11;;;;;;;7.43;6.90;;;19.40;99.90;;;;;;5032972;28;20037;-69
2022/07/13 02:15:37;;;;;;;10.52;9.65;;;19.40;99.90;;;;;;5052041;28;20036;-69
2022/07/13 02:18:03;;;;;;;9.18;8.40;;;19.30;99.90;;;;;;5052096;28;20380;-69
2022/07/13 02:20:30;;;;;;;8.48;7.82;;;19.30;99.90;;;;;;5042877;28;20592;-70
2022/07/13 02:22:55;;;;;;;9.02;8.23;;;19.30;99.90;;;;;;5047060;28;20666;-69
2022/07/13 02:25:21;;;;;;;8.57;7.88;;;19.30;99.90;;;;;;5050512;28;20067;-69
2022/07/13 02:27:47;;;;;;;8.65;7.95;;;19.40;99.90;;;;;;5050369;28;20048;-69
2022/07/13 02:30:14;;;;;;;7.68;6.97;;;19.40;99.90;;;;;;5050763;28;20033;-69
2022/07/13 02:32:42;;;;;;;7.85;7.25;;;19.40;99.90;;;;;;5050301;28;20032;-69
2022/07/13 02:35:08;;;;;;;7.35;6.75;;;19.40;99.90;;;;;;5049196;28;20399;-70
2022/07/13 02:37:33;;;;;;;7.72;7.15;;;19.40;99.90;;;;;;5050135;28;20045;-69
2022/07/13 02:39:59;;;;;;;8.20;6.78;;;19.40;99.90;;;;;;5050228;28;20052;-70
2022/07/13 02:42:25;;;;;;;7.70;6.97;;;19.40;99.90;;;;;;5051222;28;20126;-69
2022/07/13 02:44:51;;;;;;;7.85;7.07;;;19.50;99.90;;;;;;5049824;28;20056;-70
2022/07/13 02:47:17;;;;;;;8.30;7.43;;;19.50;99.90;;;;;;5051361;28;20029;-70
2022/07/13 02:49:43;;;;;;;6.80;6.30;;;19.50;99.90;;;;;;5050828;28;20604;-69
2022/07/13 02:52:08;;;;;;;8.43;7.68;;;19.50;99.90;;;;;;5039315;28;20041;-69
2022/07/13 02:54:34;;;;;;;9.05;8.15;;;19.50;99.90;;;;;;5049453;28;20551;-70
2022/07/13 02:56:59;;;;;;;6.90;6.40;;;19.50;99.90;;;;;;5041175;28;20063;-70
2022/07/13 02:59:25;;;;;;;8.00;7.38;;;19.50;99.90;;;;;;5040421;28;20044;-69
2022/07/13 03:01:50;;;;;;;7.20;6.63;;;19.50;99.90;;;;;;5046756;28;20101;-69
2022/07/13 03:04:16;;;;;;;7.13;6.60;;;19.50;99.90;;;;;;5046488;28;20048;-70
2022/07/13 03:06:43;;;;;;;7.20;6.70;;;19.50;99.90;;;;;;5052594;28;20045;-69
2022/07/13 03:09:08;;;;;;;6.57;6.07;;;19.50;99.90;;;;;;5066136;28;20045;-69
2022/07/13 03:11:34;;;;;;;6.10;5.70;;;19.50;99.90;;;;;;5067010;28;20477;-69
2022/07/13 03:14:01;;;;;;;6.53;5.90;;;19.50;99.90;;;;;;5052857;28;20040;-69
2022/07/13 03:16:27;;;;;;;6.53;5.88;;;19.50;99.90;;;;;;5034753;28;20040;-69
2022/07/13 03:18:52;;;;;;;6.55;5.95;;;19.50;99.90;;;;;;5052946;28;20378;-70
2022/07/13 03:21:19;;;;;;;7.95;7.28;;;19.50;99.90;;;;;;5052213;28;20074;-69
2022/07/13 03:23:45;;;;;;;8.63;7.88;;;19.40;99.90;;;;;;5035996;28;20382;-69
2022/07/13 03:26:10;;;;;;;6.80;6.20;;;19.40;99.90;;;;;;5069202;28;20051;-69
2022/07/13 03:28:36;;;;;;;6.68;6.18;;;19.50;99.90;;;;;;5048477;28;20037;-69
2022/07/13 03:31:01;;;;;;;7.65;6.60;;;19.40;99.90;;;;;;5051715;28;20470;-69
2022/07/13 03:33:27;;;;;;;7.78;7.13;;;19.40;99.90;;;;;;5051310;28;20477;-69
2022/07/13 03:35:53;;;;;;;7.15;6.47;;;19.40;99.90;;;;;;5069906;28;20029;-70
2022/07/13 03:38:18;;;;;;;7.30;6.80;;;19.40;99.90;;;;;;5049493;28;20040;-69
2022/07/13 03:40:44;;;;;;;8.15;7.45;;;19.40;99.90;;;;;;5032732;28;20041;-70
2022/07/13 03:43:09;;;;;;;8.13;7.40;;;19.40;99.90;;;;;;5046714;28;20421;-70
2022/07/13 03:45:35;;;;;;;6.78;6.28;;;19.40;99.90;;;;;;5048377;28;20043;-70
2022/07/13 03:48:00;;;;;;;7.53;6.88;;;19.40;99.90;;;;;;5050528;28;20094;-69
2022/07/13 03:50:26;;;;;;;7.03;6.35;;;19.40;99.90;;;;;;5049970;28;20090;-70
2022/07/13 03:52:51;;;;;;;6.95;6.38;;;19.40;99.90;;;;;;5050446;28;20052;-70
2022/07/13 03:55:18;;;;;;;7.97;6.68;;;19.40;99.90;;;;;;5051643;28;20041;-69
2022/07/13 03:57:43;;;;;;;6.60;6.10;;;19.40;99.90;;;;;;5024238;28;20052;-69
2022/07/13 04:00:09;;;;;;;7.63;6.80;;;19.40;99.90;;;;;;5051076;28;20047;-69
2022/07/13 04:02:35;;;;;;;7.55;6.85;;;19.40;99.90;;;;;;5068590;28;20037;-70
2022/07/13 04:05:01;;;;;;;8.35;7.40;;;19.40;99.90;;;;;;5050306;28;20433;-69
2022/07/13 04:07:27;;;;;;;8.30;7.53;;;19.40;99.90;;;;;;5051529;28;20052;-69
2022/07/13 04:09:52;;;;;;;7.47;6.88;;;19.40;99.90;;;;;;5049967;28;20127;-69
2022/07/13 04:12:22;;;;;;;8.43;7.55;;;19.40;99.90;;;;;;5051824;28;20083;-70
2022/07/13 04:14:50;;;;;;;8.30;7.60;;;19.40;99.90;;;;;;5035438;28;20053;-69
2022/07/13 04:17:16;;;;;;;20.02;7.10;;;19.40;99.90;;;;;;5068340;28;20092;-69
2022/07/13 04:19:42;;;;;;;7.63;7.03;;;19.40;99.90;;;;;;5067255;28;20038;-69
2022/07/13 04:22:07;;;;;;;6.90;6.40;;;19.40;99.90;;;;;;5035736;28;20079;-69
2022/07/13 04:24:33;;;;;;;7.28;6.57;;;19.40;99.90;;;;;;5068556;28;20035;-69
2022/07/13 04:26:58;;;;;;;7.38;6.68;;;19.50;99.90;;;;;;5067883;28;20035;-70
2022/07/13 04:29:24;;;;;;;7.18;6.47;;;19.50;99.90;;;;;;5050644;28;20040;-70
2022/07/13 04:31:50;;;;;;;6.53;6.00;;;19.50;99.90;;;;;;5050842;28;20115;-69
2022/07/13 04:34:16;;;;;;;6.85;6.30;;;19.50;99.90;;;;;;5050374;28;20420;-70
2022/07/13 04:36:43;;;;;;;6.13;5.57;;;19.50;99.90;;;;;;5032295;28;20049;-70
2022/07/13 04:39:09;;;;;;;6.60;6.00;;;19.50;99.90;;;;;;5049646;28;20486;-70
2022/07/13 04:41:35;;;;;;;6.72;5.90;;;19.50;99.90;;;;;;5069132;28;20044;-70
2022/07/13 04:44:00;;;;;;;6.30;5.70;;;19.50;99.90;;;;;;5044515;28;20463;-70
2022/07/13 04:46:27;;;;;;;6.80;6.30;;;19.60;99.90;;;;;;5036297;28;20052;-70
2022/07/13 04:48:53;;;;;;;5.82;5.28;;;19.60;99.90;;;;;;5038162;28;20050;-70
2022/07/13 04:51:19;;;;;;;6.50;5.90;;;19.70;99.90;;;;;;5064385;28;20032;-70
2022/07/13 04:53:45;;;;;;;6.95;6.25;;;19.70;99.90;;;;;;5048544;28;20047;-70
2022/07/13 04:56:11;;;;;;;7.00;6.40;;;19.70;99.90;;;;;;5069368;28;20546;-70
2022/07/13 04:58:37;;;;;;;7.00;6.07;;;19.70;99.90;;;;;;5051240;28;20111;-70
2022/07/13 05:01:06;;;;;;;7.22;6.53;;;19.80;99.90;;;;;;5069238;28;20167;-70
2022/07/13 05:03:32;;;;;;;7.32;6.40;;;19.80;99.90;;;;;;5050979;28;20417;-70
2022/07/13 05:05:58;;;;;;;11.88;6.60;;;19.80;99.90;;;;;;5070070;28;20040;-70
2022/07/13 05:08:25;;;;;;;6.97;6.35;;;19.90;99.90;;;;;;5030146;28;20057;-70
2022/07/13 05:10:50;;;;;;;7.18;6.47;;;19.90;99.90;;;;;;5037486;28;20385;-70
2022/07/13 05:13:16;;;;;;;7.97;7.15;;;20.00;99.90;;;;;;5051288;28;20036;-70
2022/07/13 05:15:42;;;;;;;7.22;6.47;;;20.00;99.90;;;;;;5050676;28;20405;-70
2022/07/13 05:18:07;;;;;;;6.68;6.18;;;20.00;99.90;;;;;;5051021;28;20048;-69
2022/07/13 05:20:33;;;;;;;7.13;6.53;;;20.00;99.90;;;;;;5046755;28;20051;-70
2022/07/13 05:22:59;;;;;;;6.40;5.90;;;20.00;99.90;;;;;;5078087;22;20048;-72
2022/07/13 05:25:24;;;;;;;10.57;6.20;;;20.00;99.90;;;;;;5044902;28;20045;-73
2022/07/13 05:27:50;;;;;;;6.50;5.93;;;20.10;99.90;;;;;;5033641;28;20055;-73
2022/07/13 05:30:15;;;;;;;6.40;5.55;;;20.10;99.90;;;;;;5054674;28;20054;-73
2022/07/13 05:32:41;;;;;;;6.80;6.20;;;20.20;99.90;;;;;;5046860;28;20064;-74
2022/07/13 05:35:07;;;;;;;5.95;5.45;;;20.20;99.90;;;;;;5052398;28;20469;-73
2022/07/13 05:37:33;;;;;;;5.78;5.28;;;20.20;99.90;;;;;;5037118;28;20477;-73
2022/07/13 05:39:59;;;;;;;6.10;5.50;;;20.30;99.90;;;;;;5036122;28;20052;-72
2022/07/13 05:42:26;;;;;;;7.47;5.20;;;20.40;99.90;;;;;;5052954;28;20159;-72
2022/07/13 05:44:52;;;;;;;5.30;4.80;;;20.40;99.90;;;;;;5050031;28;20082;-72
2022/07/13 05:47:18;;;;;;;7.20;5.22;;;20.50;99.90;;;;;;5051538;28;20040;-72
2022/07/13 05:49:43;;;;;;;5.93;5.43;;;20.50;99.90;;;;;;5072625;28;20402;-73
2022/07/13 05:52:09;;;;;;;5.65;5.25;;;20.60;99.90;;;;;;5052300;28;20040;-73
2022/07/13 05:54:35;;;;;;;5.20;4.80;;;20.70;99.90;;;;;;5037914;28;20048;-73
2022/07/13 05:57:01;;;;;;;6.00;5.40;;;20.80;99.90;;;;;;5045877;28;20478;-72
2022/07/13 05:59:27;;;;;;;5.18;4.75;;;20.90;99.90;;;;;;5050487;28;20076;-72
2022/07/13 06:01:53;;;;;;;6.40;4.80;;;21.00;99.90;;;;;;5052705;28;20123;-72
2022/07/13 06:04:19;;;;;;;5.25;4.75;;;21.20;99.90;;;;;;5054479;28;20048;-72
2022/07/13 06:06:45;;;;;;;8.38;4.82;;;21.30;99.90;;;;;;5037669;28;20052;-72
2022/07/13 06:09:11;;;;;;;4.53;4.22;;;21.50;99.90;;;;;;5054416;28;20094;-77
2022/07/13 06:11:37;;;;;;;5.38;4.50;;;21.50;99.90;;;;;;5036238;28;20039;-75
2022/07/13 06:14:03;;;;;;;7.60;5.00;;;21.70;99.90;;;;;;5035302;28;20071;-75
2022/07/13 06:16:28;;;;;;;5.55;4.95;;;21.70;99.90;;;;;;5034924;28;20518;-74
2022/07/13 06:18:54;;;;;;;4.57;4.28;;;21.90;99.90;;;;;;5054015;28;20494;-75
2022/07/13 06:21:19;;;;;;;5.35;4.88;;;22.00;99.90;;;;;;5058042;28;20421;-75
2022/07/13 06:23:45;;;;;;;5.20;4.70;;;22.20;99.90;;;;;;5061285;28;20052;-75
2022/07/13 06:26:10;;;;;;;5.60;5.10;;;22.30;99.90;;;;;;5056627;28;20473;-75
2022/07/13 06:28:36;;;;;;;5.35;4.88;;;22.30;99.90;;;;;;5052258;28;20079;-75
2022/07/13 06:31:02;;;;;;;5.32;4.80;;;22.50;99.90;;;;;;5050128;28;20530;-74
2022/07/13 06:33:27;;;;;;;5.22;4.50;;;22.70;99.90;;;;;;5043654;28;20155;-74
2022/07/13 06:35:53;;;;;;;5.03;4.53;;;22.80;99.90;;;;;;5027101;28;20508;-74
2022/07/13 06:38:18;;;;;;;6.10;5.50;;;23.00;99.90;;;;;;5030167;28;20059;-75
2022/07/13 06:40:47;;;;;;;5.97;4.65;;;23.20;99.90;;;;;;5046031;28;20063;-74
2022/07/13 06:43:13;;;;;;;6.15;5.65;;;23.30;99.90;;;;;;5051583;28;20037;-75
2022/07/13 06:45:39;;;;;;;6.63;5.85;;;23.50;99.90;;;;;;5052018;28;20166;-75
2022/07/13 06:48:07;;;;;;;5.60;4.97;;;23.60;99.90;;;;;;5054127;28;20044;-75
2022/07/13 06:50:33;;;;;;;5.47;5.07;;;23.80;99.90;;;;;;5044581;28;20068;-75
2022/07/13 06:52:59;;;;;;;7.45;6.00;;;24.00;99.90;;;;;;5043671;28;20076;-74
2022/07/13 06:55:24;;;;;;;7.82;5.25;;;24.10;99.90;;;;;;5035080;28;20047;-74
2022/07/13 06:57:51;;;;;;;6.47;5.97;;;24.20;99.90;;;;;;5032439;28;20048;-74
2022/07/13 07:00:17;;;;;;;8.52;6.82;;;24.30;99.90;;;;;;5036647;28;20046;-74
2022/07/13 07:02:42;;;;;;;7.35;6.68;;;24.20;99.90;;;;;;5030079;28;20040;-73
2022/07/13 07:05:11;;;;;;;7.25;6.65;;;24.40;99.90;;;;;;5051520;28;20133;-73
2022/07/13 07:07:38;;;;;;;7.35;6.55;;;24.50;99.90;;;;;;5053620;28;20119;-75
2022/07/13 07:10:04;;;;;;;7.03;6.32;;;24.90;99.90;;;;;;5054409;28;20511;-75
2022/07/13 07:12:29;;;;;;;6.90;6.10;;;25.70;99.90;;;;;;5052051;28;20174;-75
2022/07/13 07:14:55;;;;;;;7.28;6.68;;;26.50;99.20;;;;;;5052258;28;20496;-74
2022/07/13 07:17:20;;;;;;;7.30;5.80;;;27.30;98.10;;;;;;5050739;28;21000;-75
2022/07/13 07:19:46;;;;;;;6.63;5.93;;;28.30;97.60;;;;;;5035017;28;20036;-75
2022/07/13 07:22:12;;;;;;;7.30;6.60;;;29.00;95.30;;;;;;5034466;28;20168;-74
2022/07/13 07:24:39;;;;;;;7.68;6.97;;;29.80;93.50;;;;;;5030540;28;20068;-73
2022/07/13 07:27:07;;;;;;;6.57;5.97;;;30.20;92.70;;;;;;5043246;28;20143;-74
2022/07/13 07:29:34;;;;;;;7.15;6.45;;;29.90;92.50;;;;;;5049306;28;20431;-74
2022/07/13 07:32:01;;;;;;;7.32;6.53;;;29.50;92.80;;;;;;5052867;28;20041;-74
2022/07/13 07:34:27;;;;;;;7.38;6.68;;;29.10;92.90;;;;;;5044756;28;20432;-74
2022/07/13 07:36:53;;;;;;;7.88;7.18;;;28.60;93.20;;;;;;5064402;28;20037;-73
2022/07/13 07:39:18;;;;;;;7.60;7.00;;;28.40;92.90;;;;;;5040398;28;20041;-73
2022/07/13 07:41:44;;;;;;;7.50;6.70;;;28.30;93.30;;;;;;5050526;28;20033;-73
2022/07/13 07:44:10;;;;;;;8.88;6.72;;;29.10;93.30;;;;;;5043327;28;20037;-74
2022/07/13 07:46:38;;;;;;;8.00;7.20;;;29.80;92.50;;;;;;5051447;28;20048;-72
2022/07/13 07:49:04;;;;;;;8.50;7.43;;;30.20;91.70;;;;;;5035281;28;20044;-74
2022/07/13 07:51:30;;;;;;;10.35;7.68;;;29.40;91.80;;;;;;5034247;28;20417;-74
2022/07/13 07:53:56;;;;;;;7.78;7.03;;;29.10;92.60;;;;;;5032616;28;20062;-74
2022/07/13 07:56:23;;;;;;;9.20;7.18;;;29.10;92.50;;;;;;5048958;28;20807;-74
2022/07/13 07:58:49;;;;;;;8.85;7.30;;;29.50;92.00;;;;;;5049333;28;20033;-74
2022/07/13 08:01:14;;;;;;;8.85;7.70;;;30.20;91.20;;;;;;5050706;28;20079;-74
2022/07/13 08:03:40;;;;;;;10.23;7.55;;;;;;;;;;5047511;28;20091;-75
2022/07/13 08:06:06;;;;;;;9.00;7.15;;;31.00;90.60;;;;;;5060865;28;20044;-75
2022/07/13 08:08:32;;;;;;;9.07;8.15;;;31.50;88.70;;;;;;5036643;28;20036;-75
2022/07/13 08:10:58;;;;;;;8.65;6.57;;;31.80;88.40;;;;;;5048490;28;20106;-75
2022/07/13 08:13:24;;;;;;;6.93;6.22;;;31.80;87.80;;;;;;5036557;28;20067;-75
2022/07/13 08:15:49;;;;;;;8.00;7.30;;;31.70;87.80;;;;;;5034668;28;20045;-74
2022/07/13 08:18:15;;;;;;;6.93;6.35;;;31.10;88.50;;;;;;5042149;28;20040;-74
2022/07/13 08:20:40;;;;;;;8.05;7.28;;;30.60;88.90;;;;;;5049219;28;20044;-75
2022/07/13 08:23:50;;;;;;;7.30;6.70;;;30.00;90.00;;;;;;5069470;28;20044;-75
2022/07/13 08:25:52;;;;;;;8.63;7.68;;;29.60;90.20;;;;;;5053005;28;20374;-74
2022/07/13 08:28:17;;;;;;;9.20;6.18;;;28.30;91.60;;;;;;5055611;28;20032;-75
2022/07/13 08:30:43;;;;;;;8.40;6.63;;;27.80;92.90;;;;;;5032095;28;20077;-74
2022/07/13 08:33:08;;;;;;;7.57;6.97;;;27.80;93.10;;;;;;5050505;28;20036;-73
2022/07/13 08:38:37;;;;;;;8.30;7.43;;;27.60;93.90;;;;;;5051314;28;20052;-74
2022/07/13 08:41:04;;;;;;;8.60;7.70;;;27.50;93.50;;;;;;5048471;28;20482;-73
2022/07/13 08:43:30;;;;;;;7.88;7.07;;;27.50;92.80;;;;;;5035885;28;20045;-73
2022/07/13 08:45:56;;;;;;;7.78;7.05;;;27.20;93.70;;;;;;5035621;28;20048;-74
2022/07/13 08:48:31;;;;;;;8.20;6.97;;;27.10;94.20;;;;;;5049565;28;20044;-74
2022/07/13 08:50:57;;;;;;;9.23;7.28;;;27.10;93.90;;;;;;5051540;28;20041;-74
2022/07/13 08:53:24;;;;;;;7.15;6.40;;;27.10;93.60;;;;;;5043955;28;20494;-75
2022/07/13 08:55:50;;;;;;;9.75;6.18;;;27.10;94.30;;;;;;5035704;28;20553;-74
2022/07/13 08:58:17;;;;;;;7.30;6.32;;;27.10;94.40;;;;;;5023777;28;20048;-74
2022/07/13 09:00:42;;;;;;;7.68;6.88;;;27.20;94.10;;;;;;5051174;28;20486;-75
2022/07/13 09:03:09;;;;;;;5.90;5.25;;;27.30;94.70;;;;;;5025288;28;20047;-74
2022/07/13 09:05:35;;;;;;;5.82;5.05;;;27.20;93.70;;;;;;5055189;28;20091;-75
2022/07/13 09:08:06;;;;;;;5.88;5.38;;;27.30;93.70;;;;;;5053515;28;20466;-74
2022/07/13 09:10:32;;;;;;;5.22;4.72;;;27.40;93.00;;;;;;5038182;28;20326;-74
2022/07/13 09:12:58;;;;;;;6.50;5.00;;;27.50;92.90;;;;;;5038664;28;20069;-74
2022/07/13 09:15:23;;;;;;;5.13;4.30;;;27.40;92.50;;;;;;5033934;28;20581;-73
2022/07/13 09:17:49;;;;;;;9.77;3.45;;;27.30;92.90;;;;;;5067319;28;21029;-72
2022/07/13 09:20:15;;;;;;;4.28;3.35;;;27.40;92.20;;;;;;5053938;28;20044;-75
2022/07/13 09:22:54;;;;;;;3.72;3.05;;;27.40;92.70;;;;;;5051215;28;20048;-74
2022/07/13 09:25:31;;;;;;;4.30;3.10;;;27.50;92.20;;;;;;5052951;28;20552;-74
2022/07/13 09:28:00;;;;;;;3.97;3.30;;;27.40;91.80;;;;;;5054860;28;20094;-74
2022/07/13 09:30:26;;;;;;;5.65;2.70;;;26.90;90.40;;;;;;5057141;28;20097;-75
2022/07/13 09:32:57;;;;;;;3.45;2.38;;;26.70;90.70;;;;;;5045575;28;20071;-74
2022/07/13 09:35:49;;;;;;;2.40;1.60;;;27.00;91.30;;;;;;5077985;28;20042;-74
2022/07/13 09:38:37;;;;;;;2.97;2.05;;;26.80;87.50;;;;;;5055476;28;20044;-75
2022/07/13 09:41:16;;;;;;;2.97;1.80;;;27.10;89.20;;;;;;5047947;28;20033;-74
2022/07/13 09:46:50;;;;;;;3.65;1.60;;;27.50;91.00;;;;;;5038988;28;21078;-75
2022/07/13 09:49:17;;;;;;;3.35;1.85;;;27.50;90.20;;;;;;5047272;28;20086;-74
2022/07/13 09:51:46;;;;;;;3.28;1.80;;;27.40;90.00;;;;;;5037030;28;20040;-74
2022/07/13 09:54:13;;;;;;;2.97;1.70;;;27.40;88.50;;;;;;5036823;28;20598;-74
2022/07/13 09:56:49;;;;;;;1.92;1.70;;;27.20;83.40;;;;;;5041925;28;20095;-74
2022/07/13 09:59:16;;;;;;;2.95;2.13;;;27.20;85.40;;;;;;5054222;28;20075;-74
2022/07/13 10:01:45;;;;;;;3.72;2.20;;;27.20;88.10;;;;;;5055364;28;20048;-73
2022/07/13 10:04:12;;;;;;;2.55;1.80;;;27.40;89.80;;;;;;5047688;28;20036;-73
2022/07/13 10:06:39;;;;;;;2.65;2.05;;;27.50;87.60;;;;;;5028091;28;20131;-73
2022/07/13 10:09:05;;;;;;;2.90;2.08;;;27.60;88.50;;;;;;5051473;28;20478;-73
2022/07/13 10:11:30;;;;;;;2.58;2.03;;;27.60;88.90;;;;;;5047709;28;20072;-73
2022/07/13 10:13:57;;;;;;;3.83;1.90;;;27.40;87.00;;;;;;5055171;28;20071;-73
2022/07/13 10:16:23;;;;;;;2.58;2.10;;;27.60;89.50;;;;;;5038554;28;20079;-73
2022/07/13 10:18:50;;;;;;;2.53;1.95;;;27.30;83.90;;;;;;5055390;28;20154;-73
2022/07/13 10:21:25;;;;;;;3.88;2.10;;;27.40;86.20;;;;;;5046513;28;20052;-72
2022/07/13 10:23:51;;;;;;;4.72;2.50;;;27.50;88.80;;;;;;5052717;28;20088;-72
2022/07/13 10:26:28;;;;;;;3.13;1.90;;;27.50;88.20;;;;;;5053468;28;20420;-72
2022/07/13 10:29:26;;;;;;;4.72;2.20;;;27.40;84.20;;;;;;5038477;28;20048;-73
2022/07/13 10:31:59;;;;;;;2.72;2.47;;;27.50;85.00;;;;;;5021633;28;20080;-74
2022/07/13 10:34:51;;;;;;;5.10;2.10;;;27.60;87.60;;;;;;5047607;28;20042;-73
2022/07/13 10:37:17;;;;;;;2.65;1.98;;;27.80;89.10;;;;;;5054010;28;20048;-74
2022/07/13 10:40:13;;;;;;;3.45;2.05;;;28.00;89.80;;;;;;5052541;28;20040;-75
2022/07/13 10:42:54;;;;;;;3.08;1.80;;;27.80;85.80;;;;;;5034270;28;20495;-74
2022/07/13 10:45:40;;;;;;;3.10;2.00;;;27.80;88.50;;;;;;5057838;28;20067;-73
2022/07/13 10:48:05;;;;;;;6.57;2.50;;;28.10;88.60;;;;;;5054555;28;20084;-73
2022/07/13 10:50:47;;;;;;;3.72;3.00;;;28.20;88.90;;;;;;5036131;28;20059;-73
2022/07/13 10:53:15;;;;;;;2.55;2.28;;;28.00;85.30;;;;;;5046889;28;20052;-76
2022/07/13 10:55:48;;;;;;;4.55;3.08;;;28.00;87.90;;;;;;5070389;28;20051;-76
2022/07/13 10:58:32;;;;;;;3.00;2.58;;;27.90;86.20;;;;;;5036658;28;20390;-76
2022/07/13 11:01:24;;;;;;;3.35;2.42;;;27.70;87.90;;;;;;5067867;28;20477;-74
2022/07/13 11:03:50;;;;;;;4.53;2.83;;;27.80;87.60;;;;;;5054589;28;20071;-75
2022/07/13 11:06:23;;;;;;;5.15;2.33;;;27.70;87.90;;;;;;5054330;28;20076;-74
2022/07/13 11:09:20;;;;;;;4.25;3.00;;;27.90;87.80;;;;;;5052928;28;20028;-75
2022/07/13 11:11:51;;;;;;;5.38;2.42;;;27.60;87.40;;;;;;5054113;28;20480;-75
2022/07/13 11:14:43;;;;;;;;;;;27.80;89.10;;;;;;5055618;28;20105;-73
2022/07/13 11:17:12;;;;;;;;;;;27.90;87.30;;;;;;5052632;28;19916;-74
2022/07/13 11:20:13;;;;;;;3.50;2.20;;;28.10;88.00;;;;;;5052103;28;20792;-73
2022/07/13 11:25:49;;;;;;;2.92;2.70;;;28.40;88.80;;;;;;5046853;28;20036;-75
2022/07/13 11:28:41;;;;;;;3.22;2.45;;;28.00;87.20;;;;;;5037080;28;20102;-75
2022/07/13 11:31:08;;;;;;;3.75;2.50;;;28.50;86.90;;;;;;5043059;28;20493;-74
2022/07/13 11:33:34;;;;;;;3.67;2.10;;;28.30;85.40;;;;;;5048426;28;20559;-73
2022/07/13 11:36:00;;;;;;;2.75;2.03;;;28.20;86.80;;;;;;5059239;28;20064;-75
2022/07/13 11:38:34;;;;;;;2.40;1.83;;;28.40;87.50;;;;;;5033082;28;20133;-75
2022/07/13 11:41:00;;;;;;;3.03;1.85;;;28.40;87.10;;;;;;5056343;28;20174;-74
2022/07/13 11:43:26;;;;;;;2.95;1.70;;;28.50;87.20;;;;;;5049487;28;20491;-73
2022/07/13 11:45:52;;;;;;;4.20;1.67;;;28.40;83.70;;;;;;5044765;28;20090;-74
2022/07/13 11:48:17;;;;;;;3.92;1.70;;;28.20;86.80;;;;;;5053029;28;20040;-74
2022/07/13 11:50:50;;;;;;;3.53;1.80;;;28.20;86.10;;;;;;5052934;28;20053;-75
2022/07/13 11:53:24;;;;;;;4.20;1.92;;;28.00;85.70;;;;;;5053159;28;20044;-75
2022/07/13 11:55:51;;;;;;;6.53;2.10;;;27.60;84.80;;;;;;5069345;28;20055;-75
2022/07/13 11:58:31;;;;;;;3.35;1.98;;;27.60;84.80;;;;;;5053850;28;20458;-75
2022/07/13 12:00:56;;;;;;;3.42;2.17;;;27.80;87.70;;;;;;5051476;28;20091;-74
2022/07/13 12:03:30;;;;;;;2.42;1.70;;;27.50;85.10;;;;;;5053566;28;20041;-74
2022/07/13 12:06:07;;;;;;;2.67;1.70;;;27.40;85.00;;;;;;5053685;28;20063;-73
2022/07/13 12:08:35;;;;;;;4.15;1.88;;;27.40;84.70;;;;;;5033534;28;20048;-74
2022/07/13 12:11:03;;;;;;;1.83;1.73;;;27.70;87.40;;;;;;5048930;28;20047;-75
2022/07/13 12:13:34;;;;;;;2.85;1.73;;;27.90;85.20;;;;;;5044178;28;20040;-74
2022/07/13 12:16:00;;;;;;;;;;;27.70;82.80;;;;;;5033746;28;20045;-75
2022/07/13 12:18:26;;;;;;;3.53;2.20;;;27.70;87.50;;;;;;5033732;28;19916;-74
2022/07/13 12:20:52;;;;;;;3.55;2.00;;;27.60;85.30;;;;;;5034359;28;20041;-74
2022/07/13 12:23:18;;;;;;;3.40;1.60;;;27.80;86.60;;;;;;5045306;28;20057;-74
2022/07/13 12:25:43;;;;;;;2.95;1.88;;;27.80;86.90;;;;;;5044111;28;20053;-73
2022/07/13 12:28:10;;;;;;;4.60;1.80;;;27.60;86.60;;;;;;5052980;28;20041;-74
2022/07/13 12:30:53;;;;;;;4.80;1.90;;;27.10;85.80;;;;;;5052710;28;20481;-73
2022/07/13 12:33:19;;;;;;;2.20;1.80;;;27.30;87.80;;;;;;5021076;28;20037;-74
2022/07/13 12:35:45;;;;;;;3.08;1.90;;;27.20;85.60;;;;;;5038236;28;20052;-72
2022/07/13 12:38:14;;;;;;;3.15;2.22;;;27.10;87.80;;;;;;5037345;28;20033;-74
2022/07/13 12:40:41;;;;;;;3.55;1.90;;;27.10;88.40;;;;;;5058298;28;20041;-75
2022/07/13 12:43:28;;;;;;;6.25;1.90;;;27.10;88.90;;;;;;5070903;28;20044;-73
2022/07/13 12:46:01;;;;;;;2.17;1.60;;;26.90;88.40;;;;;;5052934;28;20130;-73
2022/07/13 12:48:32;;;;;;;3.78;1.85;;;26.90;89.90;;;;;;5049243;28;20075;-74
2022/07/13 12:51:12;;;;;;;5.20;1.63;;;27.10;89.40;;;;;;5038997;28;20052;-73
2022/07/13 12:53:56;;;;;;;2.67;1.80;;;26.90;89.20;;;;;;5053256;28;20295;-74
2022/07/13 12:56:25;;;;;;;3.53;1.83;;;27.10;91.10;;;;;;5052063;28;20045;-75
2022/07/13 12:58:53;;;;;;;5.05;1.92;;;27.10;90.00;;;;;;5054987;28;20037;-73
2022/07/13 13:01:30;;;;;;;5.93;2.40;;;27.30;90.80;;;;;;5054957;28;20043;-74